Time;durP1;ratioP1;P1;durP2;ratioP2;P2;SDS_P1;SDS_P2;PMS_P1;PMS_P2;Temp;Humidity;BMP_temperature;BMP_pressure;BME280_temperature;BME280_humidity;BME280_pressure;Samples;Min_cycle;Max_cycle;Signal;HPM_P1;HPM_P2
2023/12/20 00:00:11;;;;;;;10.48;4.20;;;7.40;99.90;;;;;;7370609;32;20542;-56
2023/12/20 00:04:13;;;;;;;9.48;4.05;;;7.40;99.90;;;;;;7355973;32;20159;-56
2023/12/20 00:08:16;;;;;;;10.50;5.22;;;7.30;99.90;;;;;;7363565;32;20758;-56
2023/12/20 00:12:18;;;;;;;12.90;5.37;;;7.30;99.90;;;;;;7364887;32;20131;-55
2023/12/20 00:16:19;;;;;;;8.55;4.93;;;7.30;99.90;;;;;;7348401;32;20497;-56
2023/12/20 00:20:21;;;;;;;9.73;5.22;;;7.20;99.90;;;;;;7359153;32;20523;-56
2023/12/20 00:24:23;;;;;;;9.10;4.97;;;7.20;99.90;;;;;;7359781;32;20119;-55
2023/12/20 00:28:25;;;;;;;10.07;4.65;;;7.20;99.90;;;;;;7360559;32;20107;-56
2023/12/20 00:32:27;;;;;;;11.27;5.22;;;7.20;99.90;;;;;;7364333;32;20182;-56
2023/12/20 00:36:29;;;;;;;9.05;4.93;;;7.30;99.90;;;;;;7364506;32;20230;-56
2023/12/20 00:40:31;;;;;;;14.60;5.28;;;7.20;99.90;;;;;;7366923;32;20441;-55
2023/12/20 00:44:33;;;;;;;8.30;4.50;;;7.20;99.90;;;;;;7364714;32;20210;-55
2023/12/20 00:48:35;;;;;;;14.77;5.80;;;7.10;99.90;;;;;;7368104;32;20652;-55
2023/12/20 00:52:37;;;;;;;11.25;5.47;;;7.00;99.90;;;;;;7359694;32;20107;-54
2023/12/20 00:56:39;;;;;;;12.63;5.15;;;7.00;99.90;;;;;;7363891;32;20629;-55
2023/12/20 01:00:42;;;;;;;13.80;5.72;;;6.90;99.90;;;;;;7368089;32;20107;-56
2023/12/20 01:04:46;;;;;;;11.40;5.82;;;6.90;99.90;;;;;;7359433;32;20251;-56
2023/12/20 01:08:48;;;;;;;11.55;5.65;;;6.90;99.90;;;;;;7360572;32;20092;-55
2023/12/20 01:12:50;;;;;;;18.90;5.93;;;7.00;99.90;;;;;;7356173;32;20123;-55
2023/12/20 01:16:52;;;;;;;12.23;6.18;;;7.10;99.90;;;;;;7364188;32;20115;-55
2023/12/20 01:20:54;;;;;;;10.93;6.82;;;7.10;99.90;;;;;;7350162;32;20433;-54
2023/12/20 01:24:57;;;;;;;13.65;7.07;;;7.00;99.90;;;;;;7359756;32;20269;-54
2023/12/20 01:28:59;;;;;;;16.12;8.05;;;7.00;99.90;;;;;;7366325;32;20108;-55
2023/12/20 01:33:01;;;;;;;17.85;7.60;;;7.00;99.90;;;;;;7354030;32;20092;-54
2023/12/20 01:37:04;;;;;;;16.83;8.60;;;6.90;99.90;;;;;;7359258;32;20138;-55
2023/12/20 01:41:06;;;;;;;20.67;9.38;;;7.00;99.90;;;;;;7371774;32;20107;-55
2023/12/20 01:45:09;;;;;;;17.95;11.07;;;6.90;99.90;;;;;;7360441;32;20175;-55
2023/12/20 01:49:11;;;;;;;18.85;10.82;;;6.90;99.90;;;;;;7367556;32;20518;-55
2023/12/20 01:53:14;;;;;;;22.17;12.18;;;6.90;99.90;;;;;;7348975;32;20147;-55
2023/12/20 01:57:16;;;;;;;18.23;10.98;;;6.80;99.90;;;;;;7360265;32;20254;-55
2023/12/20 02:01:19;;;;;;;22.87;10.18;;;6.70;99.90;;;;;;7339179;32;20444;-55
2023/12/20 02:05:22;;;;;;;21.67;10.93;;;6.50;99.90;;;;;;7350062;32;20647;-56
2023/12/20 02:09:24;;;;;;;17.80;10.57;;;6.40;99.90;;;;;;7364225;32;20106;-56
2023/12/20 02:13:26;;;;;;;23.55;9.73;;;6.30;99.90;;;;;;7370035;32;20111;-56
2023/12/20 02:17:29;;;;;;;20.88;8.82;;;6.20;99.90;;;;;;7364670;32;20533;-56
2023/12/20 02:21:35;;;;;;;25.20;8.93;;;6.20;99.90;;;;;;7366688;32;20103;-56
2023/12/20 02:25:37;;;;;;;16.80;8.95;;;6.10;99.90;;;;;;7364505;32;20606;-56
2023/12/20 02:29:39;;;;;;;14.82;7.07;;;6.00;99.90;;;;;;7363550;32;20187;-56
2023/12/20 02:33:42;;;;;;;18.73;7.78;;;6.00;99.90;;;;;;7362036;32;20289;-55
2023/12/20 02:37:44;;;;;;;18.37;7.32;;;5.90;99.90;;;;;;7359395;32;20114;-56
2023/12/20 02:41:46;;;;;;;29.15;7.43;;;5.90;99.90;;;;;;7374054;32;20246;-56
2023/12/20 02:45:48;;;;;;;19.35;8.15;;;6.00;99.90;;;;;;7365235;32;20167;-56
2023/12/20 02:49:50;;;;;;;23.83;7.12;;;6.00;99.90;;;;;;7368444;32;20202;-56
2023/12/20 02:53:52;;;;;;;19.55;7.10;;;6.00;99.90;;;;;;7368202;32;20418;-55
2023/12/20 02:57:54;;;;;;;17.85;6.80;;;5.90;99.90;;;;;;7361644;32;20107;-56
2023/12/20 03:01:56;;;;;;;19.40;6.75;;;5.90;99.90;;;;;;7366561;32;20353;-56
2023/12/20 03:06:00;;;;;;;18.42;6.22;;;5.90;99.90;;;;;;7364954;32;20517;-54
2023/12/20 03:10:02;;;;;;;16.75;5.55;;;6.00;99.90;;;;;;7357801;32;20448;-55
2023/12/20 03:14:20;;;;;;;15.82;4.62;;;6.00;99.90;;;;;;7364015;32;20244;-56
2023/12/20 03:18:22;;;;;;;11.02;4.00;;;6.00;99.90;;;;;;7360087;32;20116;-55
2023/12/20 03:22:24;;;;;;;13.62;4.03;;;6.00;99.90;;;;;;7374181;32;20151;-56
2023/12/20 03:26:26;;;;;;;12.63;3.67;;;5.90;99.90;;;;;;7367301;32;20388;-56
2023/12/20 03:30:28;;;;;;;17.23;3.80;;;6.00;99.90;;;;;;7371842;32;20167;-56
2023/12/20 03:34:30;;;;;;;12.05;3.03;;;5.90;99.90;;;;;;7355515;32;20127;-55
2023/12/20 03:38:32;;;;;;;17.98;2.87;;;5.80;99.90;;;;;;7339637;32;20123;-56
2023/12/20 03:42:34;;;;;;;11.63;3.10;;;5.90;99.90;;;;;;7366257;32;20111;-55
2023/12/20 03:46:35;;;;;;;13.40;2.87;;;5.80;99.90;;;;;;7359597;32;20434;-56
2023/12/20 03:50:38;;;;;;;13.73;3.00;;;5.80;99.90;;;;;;7347779;32;20138;-56
2023/12/20 03:54:42;;;;;;;11.55;2.47;;;5.80;99.90;;;;;;7350495;32;20498;-56
2023/12/20 03:58:44;;;;;;;9.48;2.67;;;5.70;99.90;;;;;;7365135;32;20480;-55
2023/12/20 04:02:46;;;;;;;15.98;2.60;;;5.70;99.90;;;;;;7361200;32;20733;-55
2023/12/20 04:06:47;;;;;;;14.77;3.10;;;5.70;99.90;;;;;;7367334;32;20659;-56
2023/12/20 04:10:49;;;;;;;15.65;2.22;;;5.80;99.90;;;;;;7360344;32;20111;-56
2023/12/20 04:14:51;;;;;;;15.73;2.80;;;5.70;99.90;;;;;;7349723;32;20173;-56
2023/12/20 04:18:53;;;;;;;15.48;2.65;;;5.70;99.90;;;;;;7369562;32;20250;-56
2023/12/20 04:22:55;;;;;;;10.13;2.60;;;5.70;99.90;;;;;;7354142;32;20170;-56
2023/12/20 04:26:56;;;;;;;17.85;2.95;;;5.60;99.90;;;;;;7370794;32;20194;-56
2023/12/20 04:30:58;;;;;;;14.57;3.03;;;5.50;99.90;;;;;;7364147;32;20629;-55
2023/12/20 04:35:00;;;;;;;17.50;3.42;;;5.50;99.90;;;;;;7361462;32;20770;-56
2023/12/20 04:39:02;;;;;;;14.20;3.40;;;5.50;99.90;;;;;;7362100;32;20239;-55
2023/12/20 04:43:04;;;;;;;16.73;3.58;;;5.50;99.90;;;;;;7367468;32;20173;-56
2023/12/20 04:47:06;;;;;;;16.73;4.10;;;5.50;99.90;;;;;;7367730;32;20295;-56
2023/12/20 04:51:08;;;;;;;15.68;4.37;;;5.60;99.90;;;;;;7357304;32;20349;-55
2023/12/20 04:55:10;;;;;;;20.45;4.30;;;5.60;99.90;;;;;;7366160;32;20135;-55
2023/12/20 04:59:11;;;;;;;17.33;4.53;;;5.70;99.90;;;;;;7364446;32;20622;-55
2023/12/20 05:03:13;;;;;;;15.23;4.72;;;5.70;99.90;;;;;;7361174;32;20130;-55
2023/12/20 05:07:15;;;;;;;19.37;5.05;;;5.70;99.90;;;;;;7364106;32;20211;-54
2023/12/20 05:11:17;;;;;;;19.45;5.43;;;5.70;99.90;;;;;;7367162;32;20190;-55
2023/12/20 05:15:19;;;;;;;19.15;5.47;;;5.70;99.90;;;;;;7358837;32;20160;-55
2023/12/20 05:19:20;;;;;;;18.58;5.57;;;5.70;99.90;;;;;;7359822;32;20533;-54
2023/12/20 05:23:22;;;;;;;14.57;5.10;;;5.60;99.90;;;;;;7363056;32;20103;-56
2023/12/20 05:27:24;;;;;;;15.63;5.03;;;5.70;99.90;;;;;;7362302;32;20281;-55
2023/12/20 05:31:25;;;;;;;14.68;4.82;;;5.70;99.90;;;;;;7368601;32;20260;-55
2023/12/20 05:35:27;;;;;;;19.55;5.25;;;5.60;99.90;;;;;;7366764;32;20108;-56
2023/12/20 05:39:30;;;;;;;19.85;4.57;;;5.60;99.90;;;;;;7363152;32;20113;-56
2023/12/20 05:43:32;;;;;;;15.05;4.18;;;5.60;99.90;;;;;;7357759;32;20180;-56
2023/12/20 05:47:34;;;;;;;18.08;4.80;;;5.70;99.90;;;;;;7362944;32;20280;-56
2023/12/20 05:51:36;;;;;;;16.52;4.65;;;5.60;99.90;;;;;;7367714;32;20491;-54
2023/12/20 05:55:38;;;;;;;18.08;4.70;;;5.70;99.90;;;;;;7362885;32;20208;-55
2023/12/20 05:59:39;;;;;;;20.52;5.03;;;5.70;99.90;;;;;;7367651;32;20550;-56
2023/12/20 06:03:42;;;;;;;14.13;4.10;;;5.70;99.90;;;;;;7366472;32;20111;-55
2023/12/20 06:07:44;;;;;;;15.65;4.47;;;5.70;99.90;;;;;;7362986;32;20437;-54
2023/12/20 06:11:46;;;;;;;18.52;4.75;;;5.70;99.90;;;;;;7363612;32;20199;-56
2023/12/20 06:15:48;;;;;;;15.07;4.03;;;5.70;99.90;;;;;;7368388;32;20129;-55
2023/12/20 06:19:50;;;;;;;23.70;4.40;;;5.70;99.90;;;;;;7365319;32;20107;-54
2023/12/20 06:23:52;;;;;;;26.77;4.95;;;5.70;99.90;;;;;;7370853;32;20449;-54
2023/12/20 06:27:53;;;;;;;22.55;4.47;;;5.80;99.90;;;;;;7365867;32;20136;-55
2023/12/20 06:31:55;;;;;;;20.37;4.65;;;5.80;99.90;;;;;;7362953;32;20643;-54
2023/12/20 06:35:57;;;;;;;20.02;4.30;;;5.80;99.90;;;;;;7372582;32;20130;-55
2023/12/20 06:39:59;;;;;;;16.90;4.93;;;5.80;99.90;;;;;;7369944;32;20197;-54
2023/12/20 06:44:01;;;;;;;19.05;4.95;;;5.80;99.90;;;;;;7366524;32;20099;-54
2023/12/20 06:48:03;;;;;;;14.75;5.10;;;5.80;99.90;;;;;;7365355;32;20569;-55
2023/12/20 06:52:06;;;;;;;16.65;4.80;;;5.90;99.90;;;;;;7372383;32;20191;-56
2023/12/20 06:56:08;;;;;;;17.33;5.20;;;5.90;99.90;;;;;;7374747;32;20193;-54
2023/12/20 07:00:11;;;;;;;21.55;5.07;;;5.90;99.90;;;;;;7375569;32;20578;-54
2023/12/20 07:04:13;;;;;;;17.25;4.68;;;5.90;99.90;;;;;;7361110;32;20708;-55
2023/12/20 07:08:15;;;;;;;13.52;4.80;;;5.90;99.90;;;;;;7367841;32;20177;-55
2023/12/20 07:12:19;;;;;;;23.83;5.62;;;6.00;99.90;;;;;;7368045;32;20175;-56
2023/12/20 07:16:21;;;;;;;14.98;4.50;;;6.00;99.90;;;;;;7360566;32;20662;-55
2023/12/20 07:20:24;;;;;;;19.02;4.68;;;6.00;99.90;;;;;;7359289;32;20114;-55
2023/12/20 07:24:26;;;;;;;16.00;4.70;;;6.00;99.90;;;;;;7363171;32;21130;-55
2023/12/20 07:28:28;;;;;;;21.33;4.90;;;6.00;99.90;;;;;;7366248;32;20119;-56
2023/12/20 07:32:29;;;;;;;13.60;4.50;;;6.10;99.90;;;;;;7364600;32;20208;-55
2023/12/20 07:36:31;;;;;;;17.58;4.22;;;6.10;99.90;;;;;;7368405;32;20305;-56
2023/12/20 07:40:33;;;;;;;20.48;4.72;;;6.10;99.90;;;;;;7366601;32;20226;-56
2023/12/20 07:44:37;;;;;;;17.48;4.80;;;6.10;99.90;;;;;;7368470;32;20130;-57
2023/12/20 07:48:39;;;;;;;15.07;4.32;;;6.10;99.90;;;;;;7363933;32;20694;-57
2023/12/20 07:52:44;;;;;;;17.27;4.22;;;6.10;99.90;;;;;;7364526;32;20095;-58
2023/12/20 07:56:49;;;;;;;21.08;5.05;;;6.10;99.90;;;;;;7369017;32;20118;-58
2023/12/20 08:00:51;;;;;;;20.35;4.93;;;6.20;99.90;;;;;;7371879;32;20637;-57
2023/12/20 08:04:52;;;;;;;18.98;4.70;;;6.10;99.90;;;;;;7368469;32;20111;-57
2023/12/20 08:08:54;;;;;;;19.42;4.82;;;6.20;99.90;;;;;;7370469;32;20129;-58
2023/12/20 08:13:07;;;;;;;21.73;5.20;;;6.20;99.90;;;;;;7363313;32;20137;-58
2023/12/20 08:17:09;;;;;;;15.75;4.55;;;6.20;99.90;;;;;;7371168;32;20127;-58
2023/12/20 08:21:11;;;;;;;21.08;4.53;;;6.30;99.90;;;;;;7367534;32;20102;-57
2023/12/20 08:25:15;;;;;;;19.48;4.70;;;6.30;99.90;;;;;;7369894;32;20103;-58
2023/12/20 08:29:17;;;;;;;17.77;4.18;;;6.30;99.90;;;;;;7368391;32;20126;-57
2023/12/20 08:33:18;;;;;;;17.60;4.57;;;6.30;99.90;;;;;;7369865;32;20163;-57
2023/12/20 08:37:20;;;;;;;18.23;4.62;;;6.40;99.90;;;;;;7360708;32;20190;-56
2023/12/20 08:41:22;;;;;;;16.10;4.32;;;6.40;99.90;;;;;;7365442;32;20133;-58
2023/12/20 08:45:24;;;;;;;17.45;4.32;;;6.40;99.90;;;;;;7366202;32;20241;-58
2023/12/20 08:49:27;;;;;;;21.33;4.62;;;6.40;99.90;;;;;;7369180;32;20490;-58
2023/12/20 08:53:29;;;;;;;15.68;3.50;;;6.30;99.90;;;;;;7366819;32;20309;-57
2023/12/20 08:57:32;;;;;;;24.05;4.68;;;6.30;99.90;;;;;;7368096;32;20251;-58
2023/12/20 09:01:34;;;;;;;18.92;4.32;;;6.20;99.90;;;;;;7367275;32;20125;-58
2023/12/20 09:05:35;;;;;;;15.85;4.15;;;6.20;99.90;;;;;;7367183;32;20119;-58
2023/12/20 09:09:37;;;;;;;18.73;3.90;;;6.30;99.90;;;;;;7366997;32;20110;-58
2023/12/20 09:13:39;;;;;;;18.25;3.42;;;6.30;99.90;;;;;;7368693;32;20222;-58
2023/12/20 09:17:41;;;;;;;13.52;3.22;;;6.30;99.90;;;;;;7366661;32;20262;-57
2023/12/20 09:21:43;;;;;;;15.75;3.00;;;6.30;99.90;;;;;;7366904;32;20167;-57
2023/12/20 09:25:45;;;;;;;15.25;3.42;;;6.30;99.90;;;;;;7367871;32;20205;-58
2023/12/20 09:29:48;;;;;;;12.18;2.35;;;6.40;99.90;;;;;;7360522;32;20188;-58
2023/12/20 09:33:50;;;;;;;11.82;2.35;;;6.40;99.90;;;;;;7366196;32;20334;-56
2023/12/20 09:37:52;;;;;;;14.77;3.37;;;6.40;99.90;;;;;;7364617;32;20126;-57
2023/12/20 09:42:03;;;;;;;13.27;2.58;;;6.40;99.90;;;;;;7364213;32;20095;-57
2023/12/20 09:46:10;;;;;;;20.40;3.72;;;6.50;99.90;;;;;;7366901;32;20088;-57
2023/12/20 09:50:12;;;;;;;18.85;3.10;;;6.50;99.90;;;;;;7365716;32;20115;-57
2023/12/20 09:54:16;;;;;;;16.85;3.25;;;6.60;99.90;;;;;;7364483;32;20119;-57
2023/12/20 09:58:18;;;;;;;12.93;2.80;;;6.60;99.90;;;;;;7370327;32;20197;-56
2023/12/20 10:02:23;;;;;;;20.08;3.10;;;6.60;99.90;;;;;;7369334;32;20145;-57
2023/12/20 10:06:25;;;;;;;11.98;2.30;;;6.60;99.90;;;;;;7377218;32;20111;-57
2023/12/20 10:10:27;;;;;;;8.63;2.45;;;6.60;99.90;;;;;;7369808;32;20130;-58
2023/12/20 10:14:43;;;;;;;14.98;3.40;;;6.70;99.90;;;;;;7371214;32;20099;-57
2023/12/20 10:18:45;;;;;;;12.45;2.50;;;6.60;99.90;;;;;;7371488;32;20690;-58
2023/12/20 10:22:48;;;;;;;14.90;2.85;;;6.60;99.90;;;;;;7364156;32;20170;-58
2023/12/20 10:27:03;;;;;;;18.05;2.70;;;6.60;99.90;;;;;;7367396;32;20107;-58
2023/12/20 10:31:05;;;;;;;11.77;2.90;;;6.60;99.90;;;;;;7360197;32;20099;-59
2023/12/20 10:35:08;;;;;;;13.80;2.75;;;6.60;99.90;;;;;;7366038;32;20128;-58
2023/12/20 10:39:11;;;;;;;14.40;2.92;;;6.60;99.90;;;;;;7373963;32;20099;-57
2023/12/20 10:43:14;;;;;;;15.38;3.15;;;6.60;99.90;;;;;;7361002;32;20133;-59
2023/12/20 10:47:17;;;;;;;14.05;2.67;;;6.70;99.90;;;;;;7369480;32;20104;-57
2023/12/20 10:51:21;;;;;;;14.85;2.90;;;6.70;99.90;;;;;;7374915;32;20099;-56
2023/12/20 10:55:26;;;;;;;15.98;3.60;;;6.70;99.90;;;;;;7371021;32;20160;-56
2023/12/20 10:59:31;;;;;;;12.37;3.30;;;6.70;99.90;;;;;;7367019;32;20584;-58
2023/12/20 11:03:38;;;;;;;11.52;2.47;;;6.70;99.90;;;;;;7368736;32;20168;-58
2023/12/20 11:08:06;;;;;;;17.50;3.42;;;6.70;99.90;;;;;;7372954;32;20099;-57
2023/12/20 11:12:26;;;;;;;15.38;2.58;;;6.80;99.90;;;;;;7376502;32;20133;-58
2023/12/20 11:16:28;;;;;;;11.50;2.55;;;6.80;99.90;;;;;;7367505;32;20218;-58
2023/12/20 11:20:44;;;;;;;16.07;2.93;;;6.80;99.90;;;;;;7370254;32;20091;-58
2023/12/20 11:24:47;;;;;;;15.75;2.97;;;6.80;99.90;;;;;;7377410;32;20158;-58
2023/12/20 11:28:49;;;;;;;13.30;2.47;;;6.70;99.90;;;;;;7365198;32;20133;-59
2023/12/20 11:32:51;;;;;;;19.12;3.20;;;6.70;99.90;;;;;;7365021;32;20232;-58
2023/12/20 11:37:03;;;;;;;11.88;2.70;;;6.80;99.90;;;;;;7349792;32;20274;-58
2023/12/20 11:41:07;;;;;;;9.80;2.60;;;6.80;99.90;;;;;;7363895;32;20190;-58
2023/12/20 11:45:22;;;;;;;10.77;2.80;;;6.90;99.90;;;;;;7365240;32;20171;-58
2023/12/20 11:49:24;;;;;;;9.48;2.78;;;6.80;99.90;;;;;;7358594;32;20204;-56
2023/12/20 11:53:26;;;;;;;17.23;3.30;;;6.90;99.90;;;;;;7362550;32;20175;-56
2023/12/20 11:57:28;;;;;;;13.07;2.50;;;7.00;99.90;;;;;;7366527;32;20194;-57
2023/12/20 12:01:32;;;;;;;18.55;2.90;;;7.10;99.90;;;;;;7360851;32;20675;-56
2023/12/20 12:05:33;;;;;;;15.98;2.90;;;7.10;99.90;;;;;;7360674;32;20191;-57
2023/12/20 12:09:35;;;;;;;11.65;2.67;;;7.10;99.90;;;;;;7363089;32;20787;-57
2023/12/20 12:13:37;;;;;;;7.97;2.12;;;7.10;99.90;;;;;;7361493;32;20490;-57
2023/12/20 12:17:39;;;;;;;10.57;2.55;;;7.10;99.90;;;;;;7360949;32;20663;-56
2023/12/20 12:21:41;;;;;;;14.52;3.10;;;7.00;99.90;;;;;;7362505;32;20130;-56
2023/12/20 12:25:45;;;;;;;14.85;2.70;;;7.00;99.90;;;;;;7351584;32;20162;-56
2023/12/20 12:30:06;;;;;;;7.87;2.50;;;7.00;99.90;;;;;;7354903;32;20118;-57
2023/12/20 12:34:09;;;;;;;14.65;2.87;;;6.90;99.90;;;;;;7361007;32;20190;-58
2023/12/20 12:38:11;;;;;;;15.25;2.83;;;6.90;99.90;;;;;;7356859;32;20131;-57
2023/12/20 12:42:13;;;;;;;17.40;3.58;;;6.90;99.90;;;;;;7356848;32;20220;-58
2023/12/20 12:46:14;;;;;;;11.23;2.92;;;6.80;99.90;;;;;;7366187;32;20178;-58
2023/12/20 12:50:16;;;;;;;17.62;3.15;;;6.90;99.90;;;;;;7371191;32;20099;-58
2023/12/20 12:54:18;;;;;;;15.65;3.33;;;6.90;99.90;;;;;;7363364;32;20230;-57
2023/12/20 12:58:21;;;;;;;12.43;3.20;;;6.90;99.90;;;;;;7360060;32;20147;-58
2023/12/20 13:02:23;;;;;;;13.23;3.50;;;6.90;99.90;;;;;;7355880;32;20107;-57
2023/12/20 13:06:25;;;;;;;13.35;3.00;;;6.90;99.90;;;;;;7364953;32;20177;-58
2023/12/20 13:10:27;;;;;;;12.20;3.20;;;6.90;99.90;;;;;;7358704;32;20115;-58
2023/12/20 13:14:29;;;;;;;15.65;3.62;;;6.90;99.90;;;;;;7360083;32;20836;-56
2023/12/20 13:18:31;;;;;;;18.48;3.67;;;6.80;99.90;;;;;;7362466;32;20841;-58
2023/12/20 13:22:33;;;;;;;14.82;3.90;;;6.80;99.90;;;;;;7359969;32;20254;-56
2023/12/20 13:26:36;;;;;;;11.73;3.65;;;6.70;99.90;;;;;;7355495;32;20339;-57
2023/12/20 13:30:38;;;;;;;14.55;3.92;;;6.70;99.90;;;;;;7363599;32;20179;-58
2023/12/20 13:34:40;;;;;;;16.40;3.70;;;6.70;99.90;;;;;;7364252;32;20111;-58
2023/12/20 13:38:43;;;;;;;15.23;4.25;;;6.60;99.90;;;;;;7368087;32;20120;-57
2023/12/20 13:42:45;;;;;;;14.15;4.47;;;6.60;99.90;;;;;;7367530;32;20282;-57
2023/12/20 13:46:49;;;;;;;13.48;4.18;;;6.60;99.90;;;;;;7366167;32;20155;-57
2023/12/20 13:50:51;;;;;;;13.20;4.18;;;6.70;99.90;;;;;;7362210;32;20846;-57
2023/12/20 13:54:53;;;;;;;10.35;4.78;;;6.70;99.90;;;;;;7363563;32;20129;-57
2023/12/20 13:58:54;;;;;;;19.33;4.90;;;6.70;99.90;;;;;;7362747;32;20115;-62
2023/12/20 14:02:56;;;;;;;12.52;4.65;;;6.70;99.90;;;;;;7361432;32;20183;-58
2023/12/20 14:06:58;;;;;;;14.60;5.40;;;6.80;99.90;;;;;;7361518;32;20134;-56
2023/12/20 14:11:01;;;;;;;14.50;5.53;;;6.80;99.90;;;;;;7364255;32;20222;-58
2023/12/20 14:15:03;;;;;;;15.48;4.43;;;6.70;99.90;;;;;;7358264;32;20241;-57
2023/12/20 14:19:07;;;;;;;12.55;5.10;;;6.70;99.90;;;;;;7359975;32;20260;-58
2023/12/20 14:23:12;;;;;;;15.52;4.12;;;6.70;99.90;;;;;;7362685;32;20907;-57
2023/12/20 14:27:13;;;;;;;13.00;4.57;;;6.70;99.90;;;;;;7360577;32;20240;-59
2023/12/20 14:31:15;;;;;;;16.12;3.92;;;6.70;99.90;;;;;;7354320;32;20110;-58
2023/12/20 14:35:17;;;;;;;15.65;4.50;;;6.80;99.90;;;;;;7363521;32;20183;-58
2023/12/20 14:39:19;;;;;;;20.95;4.45;;;6.80;99.90;;;;;;7360462;32;20791;-58
2023/12/20 14:43:22;;;;;;;12.43;4.05;;;6.80;99.90;;;;;;7358461;32;20595;-57
2023/12/20 14:47:24;;;;;;;10.13;3.62;;;6.90;99.90;;;;;;7364471;32;20235;-55
2023/12/20 14:51:26;;;;;;;14.57;3.67;;;6.90;99.90;;;;;;7363028;32;20110;-58
2023/12/20 14:55:29;;;;;;;15.82;3.87;;;7.20;99.90;;;;;;7362236;32;20469;-56
2023/12/20 14:59:31;;;;;;;14.30;4.35;;;7.10;99.90;;;;;;7361108;32;20499;-57
2023/12/20 15:03:33;;;;;;;12.13;3.92;;;7.10;99.90;;;;;;7364180;32;20219;-58
2023/12/20 15:07:36;;;;;;;12.48;3.83;;;7.10;99.90;;;;;;7362577;32;20094;-59
2023/12/20 15:11:38;;;;;;;15.75;4.30;;;7.10;99.90;;;;;;7363033;32;20152;-58
2023/12/20 15:15:40;;;;;;;14.25;4.00;;;7.20;99.90;;;;;;7361039;32;20097;-58
2023/12/20 15:19:44;;;;;;;12.25;3.65;;;7.20;99.90;;;;;;7354788;32;20207;-58
2023/12/20 15:23:52;;;;;;;16.00;4.37;;;7.20;99.90;;;;;;7360718;32;20174;-58
2023/12/20 15:27:54;;;;;;;15.10;4.40;;;7.20;99.90;;;;;;7362524;32;20212;-58
2023/12/20 15:31:56;;;;;;;10.80;3.67;;;7.20;99.90;;;;;;7357951;32;20250;-57
2023/12/20 15:35:58;;;;;;;10.45;4.03;;;7.20;99.90;;;;;;7362005;32;20119;-57
2023/12/20 15:40:00;;;;;;;8.05;3.83;;;7.20;99.90;;;;;;7363319;32;20204;-57
2023/12/20 15:44:06;;;;;;;16.55;4.32;;;7.20;99.90;;;;;;7353603;32;20724;-57
2023/12/20 15:48:11;;;;;;;19.02;4.37;;;7.30;99.90;;;;;;7356113;32;20126;-56
2023/12/20 15:52:13;;;;;;;14.23;4.40;;;7.30;99.90;;;;;;7359935;32;20584;-56
2023/12/20 15:56:18;;;;;;;13.80;3.87;;;7.30;99.90;;;;;;7354274;32;20135;-57
2023/12/20 16:00:20;;;;;;;16.25;4.60;;;7.30;99.90;;;;;;7362115;32;20183;-55
2023/12/20 16:04:22;;;;;;;13.62;3.80;;;7.30;99.90;;;;;;7362555;32;20257;-56
2023/12/20 16:08:24;;;;;;;12.73;4.43;;;7.30;99.90;;;;;;7357486;32;20176;-57
2023/12/20 16:12:25;;;;;;;17.80;5.10;;;7.30;99.90;;;;;;7367701;32;20467;-56
2023/12/20 16:16:27;;;;;;;18.77;4.28;;;7.40;99.90;;;;;;7363689;32;20170;-56
2023/12/20 16:20:29;;;;;;;14.27;4.37;;;7.30;99.90;;;;;;7359336;32;20616;-56
2023/12/20 16:24:32;;;;;;;9.60;4.07;;;7.40;99.90;;;;;;7355118;32;20398;-56
2023/12/20 16:28:34;;;;;;;14.57;4.68;;;7.40;99.90;;;;;;7364138;32;20258;-56
2023/12/20 16:32:36;;;;;;;14.20;4.60;;;7.40;99.90;;;;;;7356484;32;20742;-56
2023/12/20 16:36:54;;;;;;;15.25;5.07;;;7.30;99.90;;;;;;7359957;32;20146;-56
2023/12/20 16:40:56;;;;;;;14.57;4.55;;;7.40;99.90;;;;;;7351449;32;20305;-57
2023/12/20 16:44:58;;;;;;;13.30;4.53;;;7.40;99.90;;;;;;7358059;32;20218;-55
2023/12/20 16:49:00;;;;;;;17.02;4.62;;;7.40;99.90;;;;;;7358385;32;20295;-55
2023/12/20 16:53:02;;;;;;;14.07;4.47;;;7.40;99.90;;;;;;7366110;32;20129;-54
2023/12/20 16:57:04;;;;;;;10.90;3.92;;;7.40;99.90;;;;;;7365457;32;20103;-56
2023/12/20 17:01:08;;;;;;;13.43;5.10;;;7.50;99.90;;;;;;7358525;32;20138;-56
2023/12/20 17:05:10;;;;;;;15.50;4.35;;;7.40;99.90;;;;;;7357549;32;20197;-56
2023/12/20 17:09:12;;;;;;;13.00;4.57;;;7.50;99.90;;;;;;7363508;32;20153;-56
2023/12/20 17:13:14;;;;;;;13.35;4.93;;;7.50;99.90;;;;;;7360193;32;20167;-55
2023/12/20 17:17:15;;;;;;;13.98;5.18;;;7.40;99.90;;;;;;7363804;32;20486;-56
2023/12/20 17:21:18;;;;;;;18.10;5.78;;;7.40;99.90;;;;;;7361932;32;20122;-56
2023/12/20 17:25:21;;;;;;;10.80;5.28;;;7.40;99.90;;;;;;7357934;32;20244;-56
2023/12/20 17:29:23;;;;;;;16.65;5.28;;;7.40;99.90;;;;;;7355973;32;20154;-56
2023/12/20 17:33:24;;;;;;;14.25;5.03;;;7.40;99.90;;;;;;7362041;32;20217;-56
2023/12/20 17:37:26;;;;;;;14.30;5.40;;;7.50;99.90;;;;;;7357689;32;20173;-56
2023/12/20 17:41:28;;;;;;;17.27;5.32;;;7.50;99.90;;;;;;7363332;32;20494;-56
2023/12/20 17:45:30;;;;;;;13.25;4.90;;;7.50;99.90;;;;;;7356110;32;20335;-55
2023/12/20 17:49:31;;;;;;;16.58;5.55;;;7.50;99.90;;;;;;7354010;32;20154;-55
2023/12/20 17:53:33;;;;;;;16.62;5.45;;;7.50;99.90;;;;;;7362459;32;20164;-55
2023/12/20 17:57:35;;;;;;;15.98;6.07;;;7.50;99.90;;;;;;7354074;32;20142;-55
2023/12/20 18:01:37;;;;;;;17.12;5.60;;;7.50;99.90;;;;;;7356360;32;20221;-53
2023/12/20 18:05:39;;;;;;;16.40;6.05;;;7.60;99.90;;;;;;7355562;32;20103;-54
2023/12/20 18:09:40;;;;;;;13.25;5.75;;;7.60;99.90;;;;;;7357514;32;21930;-54
2023/12/20 18:13:42;;;;;;;17.23;5.95;;;7.60;99.90;;;;;;7353672;32;20099;-55
2023/12/20 18:17:44;;;;;;;14.98;6.10;;;7.60;99.90;;;;;;7363041;32;20285;-55
2023/12/20 18:21:46;;;;;;;11.12;5.40;;;7.60;99.90;;;;;;7367563;32;20108;-57
2023/12/20 18:25:48;;;;;;;13.80;5.70;;;7.60;99.90;;;;;;7364716;32;21971;-56
2023/12/20 18:29:50;;;;;;;14.80;5.80;;;7.60;99.90;;;;;;7364883;32;20214;-55
2023/12/20 18:33:53;;;;;;;19.10;6.07;;;7.70;99.90;;;;;;7366221;32;20265;-56
2023/12/20 18:37:55;;;;;;;14.27;5.40;;;7.70;99.90;;;;;;7362332;32;20125;-56
2023/12/20 18:41:57;;;;;;;20.33;6.00;;;7.70;99.90;;;;;;7359727;32;20173;-56
2023/12/20 18:45:59;;;;;;;15.50;5.50;;;7.70;99.90;;;;;;7352432;32;20174;-55
2023/12/20 18:50:02;;;;;;;14.95;5.70;;;7.80;99.90;;;;;;7362171;32;20161;-55
2023/12/20 18:54:04;;;;;;;13.07;5.37;;;7.80;99.90;;;;;;7359161;32;20220;-55
2023/12/20 18:58:06;;;;;;;16.95;5.45;;;7.80;99.90;;;;;;7366576;32;20178;-56
2023/12/20 19:02:10;;;;;;;13.80;5.25;;;7.80;99.90;;;;;;7361629;32;20537;-54
2023/12/20 19:06:12;;;;;;;17.62;6.22;;;7.90;99.90;;;;;;7363052;32;20502;-54
2023/12/20 19:10:14;;;;;;;14.77;5.68;;;7.90;99.90;;;;;;7359810;32;20130;-55
2023/12/20 19:14:16;;;;;;;17.42;5.12;;;7.90;99.90;;;;;;7360399;32;20224;-55
2023/12/20 19:18:17;;;;;;;18.25;5.07;;;7.90;99.90;;;;;;7352355;32;20167;-54
2023/12/20 19:22:19;;;;;;;14.25;4.60;;;7.90;99.90;;;;;;7362791;32;20540;-54
2023/12/20 19:26:21;;;;;;;17.65;4.90;;;7.90;99.90;;;;;;7365552;32;20539;-54
2023/12/20 19:30:22;;;;;;;13.45;4.68;;;7.90;99.90;;;;;;7359720;32;20218;-54
2023/12/20 19:34:24;;;;;;;15.98;4.78;;;7.90;99.90;;;;;;7360093;32;20115;-54
2023/12/20 19:38:26;;;;;;;12.45;4.68;;;8.00;99.90;;;;;;7360659;32;20179;-55
2023/12/20 19:42:30;;;;;;;15.60;4.95;;;8.00;99.90;;;;;;7360322;32;20232;-55
2023/12/20 19:46:32;;;;;;;12.13;4.93;;;8.00;99.90;;;;;;7360908;32;20229;-54
2023/12/20 19:50:34;;;;;;;19.27;5.68;;;8.00;99.90;;;;;;7357281;32;20583;-68
2023/12/20 19:54:36;;;;;;;15.68;5.82;;;8.10;99.90;;;;;;7356754;32;20125;-56
2023/12/20 19:58:37;;;;;;;14.87;5.40;;;8.20;99.90;;;;;;7360214;32;20158;-56
2023/12/20 20:02:39;;;;;;;14.50;4.90;;;8.10;99.90;;;;;;7363343;32;20414;-55
2023/12/20 20:06:41;;;;;;;16.55;5.10;;;8.10;99.90;;;;;;7366171;32;20284;-56
2023/12/20 20:10:43;;;;;;;9.63;4.57;;;8.00;99.90;;;;;;7339379;32;20204;-56
2023/12/20 20:14:44;;;;;;;10.95;5.00;;;8.10;99.90;;;;;;7358027;32;20159;-56
2023/12/20 20:18:46;;;;;;;15.20;5.40;;;8.00;99.90;;;;;;7359654;32;20165;-56
2023/12/20 20:22:48;;;;;;;12.27;4.68;;;8.00;99.90;;;;;;7359268;32;20325;-56
2023/12/20 20:26:51;;;;;;;12.40;5.35;;;8.00;99.90;;;;;;7355124;32;20244;-56
2023/12/20 20:30:52;;;;;;;12.20;5.00;;;8.00;99.90;;;;;;7355153;32;20168;-54
2023/12/20 20:34:54;;;;;;;15.95;5.20;;;8.00;99.90;;;;;;7353517;32;20212;-56
2023/12/20 20:38:56;;;;;;;11.35;5.28;;;8.00;99.90;;;;;;7355218;32;20174;-55
2023/12/20 20:42:58;;;;;;;10.80;4.87;;;8.00;99.90;;;;;;7348260;32;20557;-55
2023/12/20 20:47:00;;;;;;;8.07;5.75;;;8.00;99.90;;;;;;7359878;32;20293;-56
2023/12/20 20:51:02;;;;;;;11.68;5.80;;;8.00;99.90;;;;;;7357074;32;20118;-56
2023/12/20 20:55:05;;;;;;;16.90;5.85;;;7.90;99.90;;;;;;7356172;32;20141;-56
2023/12/20 20:59:06;;;;;;;10.68;5.70;;;7.90;99.90;;;;;;7355484;32;20557;-56
2023/12/20 21:03:08;;;;;;;13.85;5.93;;;7.90;99.90;;;;;;7353571;32;20145;-55